Time;durP1;ratioP1;P1;durP2;ratioP2;P2;SDS_P1;SDS_P2;PMS_P1;PMS_P2;Temp;Humidity;BMP_temperature;BMP_pressure;BME280_temperature;BME280_humidity;BME280_pressure;Samples;Min_cycle;Max_cycle;Signal;HPM_P1;HPM_P2
2023/06/10 00:00:45;;;;;;;;;;;;;;;19.94;63.16;99142.16;3172928;28;19947;-65
2023/06/10 00:02:17;;;;;;;;;;;;;;;19.93;63.04;99136.00;3172239;28;19924;-66
2023/06/10 00:03:48;;;;;;;;;;;;;;;19.95;63.04;99135.88;3172099;28;19927;-65
2023/06/10 00:05:21;;;;;;;;;;;;;;;19.95;63.02;99133.25;3172142;28;19928;-66
2023/06/10 00:06:51;;;;;;;;;;;;;;;19.97;62.82;99137.41;3170908;28;19923;-66
2023/06/10 00:08:24;;;;;;;;;;;;;;;19.97;62.85;99132.13;3163201;28;19931;-66
2023/06/10 00:09:57;;;;;;;;;;;;;;;19.98;62.64;99140.88;3171759;28;19978;-66
2023/06/10 00:11:28;;;;;;;;;;;;;;;19.98;62.76;99144.34;3171860;28;20428;-66
2023/06/10 00:13:00;;;;;;;;;;;;;;;19.97;62.90;99134.75;3172027;28;20349;-66
2023/06/10 00:14:32;;;;;;;;;;;;;;;19.97;62.83;99141.88;3171895;28;20408;-66
2023/06/10 00:16:04;;;;;;;;;;;;;;;19.95;62.94;99138.53;3168330;28;19997;-66
2023/06/10 00:17:38;;;;;;;;;;;;;;;19.93;62.94;99140.47;3172134;28;19931;-66
2023/06/10 00:19:13;;;;;;;;;;;;;;;19.90;62.97;99136.31;3172135;28;20297;-67
2023/06/10 00:20:45;;;;;;;;;;;;;;;19.90;63.12;99132.84;3172131;28;19927;-67
2023/06/10 00:22:17;;;;;;;;;;;;;;;19.90;62.87;99135.47;3167183;28;20407;-67
2023/06/10 00:23:48;;;;;;;;;;;;;;;19.90;62.85;99135.47;3171006;28;19923;-67
2023/06/10 00:25:21;;;;;;;;;;;;;;;19.90;62.71;99132.84;3171923;28;20407;-68
2023/06/10 00:26:52;;;;;;;;;;;;;;;19.89;62.72;99132.00;3171676;28;20393;-67
2023/06/10 00:28:24;;;;;;;;;;;;;;;19.88;62.72;99132.16;3171924;28;19930;-67
2023/06/10 00:29:55;;;;;;;;;;;;;;;19.87;63.04;99135.78;3171682;28;19924;-67
2023/06/10 00:31:27;;;;;;;;;;;;;;;19.88;62.74;99129.53;3171883;28;19924;-67
2023/06/10 00:32:59;;;;;;;;;;;;;;;19.86;62.76;99128.84;3171738;28;20019;-67
2023/06/10 00:34:30;;;;;;;;;;;;;;;19.85;62.85;99133.28;3171649;28;20305;-67
2023/06/10 00:36:02;;;;;;;;;;;;;;;19.87;62.66;99138.41;3171531;28;20029;-67
2023/06/10 00:37:34;;;;;;;;;;;;;;;19.87;62.55;99133.94;3169235;28;19977;-67
2023/06/10 00:39:06;;;;;;;;;;;;;;;19.89;62.46;99133.81;3171807;28;20140;-67
2023/06/10 00:40:41;;;;;;;;;;;;;;;19.90;62.58;99138.13;3171743;28;19976;-66
2023/06/10 00:42:13;;;;;;;;;;;;;;;19.91;62.36;99127.41;3171481;28;19973;-66
2023/06/10 00:43:45;;;;;;;;;;;;;;;19.92;62.30;99123.78;3171421;28;19924;-66
2023/06/10 00:45:16;;;;;;;;;;;;;;;19.92;62.46;99128.25;3171618;28;20014;-67
2023/06/10 00:46:49;;;;;;;;;;;;;;;19.90;62.58;99127.56;3171635;28;20313;-67
2023/06/10 00:48:21;;;;;;;;;;;;;;;19.87;62.65;99123.38;3171775;28;19923;-66
2023/06/10 00:49:53;;;;;;;;;;;;;;;19.86;62.52;99129.66;3171454;28;19931;-66
2023/06/10 00:51:25;;;;;;;;;;;;;;;19.86;62.47;99126.19;3171347;28;19924;-67
2023/06/10 00:52:56;;;;;;;;;;;;;;;19.85;62.54;99132.47;3161577;28;20404;-67
2023/06/10 00:54:27;;;;;;;;;;;;;;;19.84;62.63;99130.78;3162460;28;19928;-66
2023/06/10 00:56:00;;;;;;;;;;;;;;;19.79;62.88;99133.88;3168101;28;20404;-66
2023/06/10 00:57:32;;;;;;;;;;;;;;;19.75;62.71;99129.84;3171449;28;19931;-66
2023/06/10 00:59:04;;;;;;;;;;;;;;;19.73;62.86;99127.34;3171415;28;20655;-67
2023/06/10 01:00:34;;;;;;;;;;;;;;;19.69;62.96;99131.22;3171482;28;19928;-67
2023/06/10 01:02:07;;;;;;;;;;;;;;;19.69;63.00;99127.75;3171012;28;19938;-66
2023/06/10 01:03:39;;;;;;;;;;;;;;;19.68;62.90;99126.09;3171704;28;19963;-65
2023/06/10 01:05:12;;;;;;;;;;;;;;;19.67;62.87;99129.72;3171145;28;19947;-66
2023/06/10 01:06:48;;;;;;;;;;;;;;;19.68;62.89;99134.88;3171344;28;19924;-66
2023/06/10 01:08:24;;;;;;;;;;;;;;;19.68;62.88;99137.50;3162480;28;19934;-66
2023/06/10 01:10:03;;;;;;;;;;;;;;;19.68;62.74;99134.88;3171601;28;19924;-65
2023/06/10 01:11:40;;;;;;;;;;;;;;;19.69;62.73;99139.16;3171195;28;20369;-65
2023/06/10 01:13:12;;;;;;;;;;;;;;;19.69;62.85;99140.97;3163389;28;19931;-66
2023/06/10 01:14:44;;;;;;;;;;;;;;;19.66;62.81;99139.44;3168192;28;19924;-66
2023/06/10 01:16:16;;;;;;;;;;;;;;;19.65;62.80;99145.72;3171233;28;19923;-66
2023/06/10 01:17:57;;;;;;;;;;;;;;;19.63;62.94;99150.25;3171282;28;19924;-66
2023/06/10 01:19:30;;;;;;;;;;;;;;;19.62;62.94;99143.34;3171119;28;19931;-67
2023/06/10 01:21:03;;;;;;;;;;;;;;;19.63;62.69;99147.63;3171067;28;19927;-68
2023/06/10 01:22:36;;;;;;;;;;;;;;;19.64;62.72;99144.03;3165180;28;19934;-66
2023/06/10 01:24:08;;;;;;;;;;;;;;;19.64;63.01;99136.09;3169399;28;19973;-67
2023/06/10 01:25:44;;;;;;;;;;;;;;;19.63;62.89;99142.34;3165877;28;19928;-66
2023/06/10 01:27:16;;;;;;;;;;;;;;;19.61;62.75;99144.31;3156959;28;19934;-66
2023/06/10 01:28:49;;;;;;;;;;;;;;;19.58;63.07;99141.97;3165875;28;19934;-66
2023/06/10 01:30:25;;;;;;;;;;;;;;;19.54;62.97;99140.56;3164100;28;19934;-65
2023/06/10 01:32:03;;;;;;;;;;;;;;;19.53;63.13;99142.38;3165514;28;19927;-66
2023/06/10 01:33:35;;;;;;;;;;;;;;;19.53;63.08;99150.28;3165816;28;19928;-64
2023/06/10 01:35:09;;;;;;;;;;;;;;;19.54;63.06;99145.84;3165591;28;19927;-65
2023/06/10 01:36:41;;;;;;;;;;;;;;;19.53;63.18;99146.84;3165511;28;19932;-65
2023/06/10 01:38:14;;;;;;;;;;;;;;;19.52;62.99;99139.84;3163103;28;20160;-65
2023/06/10 01:39:47;;;;;;;;;;;;;;;19.52;63.05;99146.00;3165901;28;19963;-65
2023/06/10 01:41:21;;;;;;;;;;;;;;;19.51;63.21;99154.88;3165831;28;19970;-65
2023/06/10 01:42:52;;;;;;;;;;;;;;;19.50;63.35;99147.94;3165472;28;19996;-65
2023/06/10 01:44:24;;;;;;;;;;;;;;;19.50;63.24;99147.94;3165661;28;19948;-66
2023/06/10 01:45:54;;;;;;;;;;;;;;;19.49;63.28;99148.06;3165570;28;19931;-64
2023/06/10 01:47:26;;;;;;;;;;;;;;;19.47;63.34;99148.22;3165480;28;20027;-66
2023/06/10 01:48:58;;;;;;;;;;;;;;;19.47;63.27;99147.41;3165677;28;20648;-66
2023/06/10 01:50:29;;;;;;;;;;;;;;;19.48;63.32;99143.78;3165366;28;19934;-66
2023/06/10 01:52:01;;;;;;;;;;;;;;;19.49;63.31;99137.50;3163249;28;19974;-65
2023/06/10 01:53:34;;;;;;;;;;;;;;;19.49;63.21;99141.00;3155811;28;19928;-65
2023/06/10 01:55:06;;;;;;;;;;;;;;;19.49;63.41;99148.06;3165754;28;19928;-65
2023/06/10 01:56:38;;;;;;;;;;;;;;;19.45;63.39;99144.06;3165408;28;20332;-65
2023/06/10 01:58:09;;;;;;;;;;;;;;;19.41;63.76;99151.44;3165534;28;20072;-66
2023/06/10 01:59:42;;;;;;;;;;;;;;;19.37;63.77;99149.22;3165753;28;19961;-65
2023/06/10 02:01:14;;;;;;;;;;;;;;;19.35;63.61;99152.00;3165121;28;19928;-65
2023/06/10 02:02:44;;;;;;;;;;;;;;;19.36;63.77;99153.66;3165134;28;20027;-65
2023/06/10 02:04:16;;;;;;;;;;;;;;;19.33;63.83;99152.13;3165175;28;19928;-66
2023/06/10 02:05:48;;;;;;;;;;;;;;;19.35;63.60;99156.47;3165693;28;19950;-65
2023/06/10 02:07:19;;;;;;;;;;;;;;;19.36;63.69;99152.84;3160556;28;19943;-66
2023/06/10 02:08:53;;;;;;;;;;;;;;;19.37;63.81;99157.94;3154866;28;20065;-65
2023/06/10 02:10:24;;;;;;;;;;;;;;;19.32;63.53;99154.94;3161170;28;19984;-66
2023/06/10 02:11:55;;;;;;;;;;;;;;;19.28;63.77;99162.28;3165387;28;19927;-66
2023/06/10 02:13:27;;;;;;;;;;;;;;;19.23;63.91;99159.25;3165014;28;20377;-65
2023/06/10 02:14:57;;;;;;;;;;;;;;;19.23;63.87;99156.59;3165411;28;19928;-65
2023/06/10 02:16:29;;;;;;;;;;;;;;;19.21;64.11;99153.25;3165286;28;19928;-66
2023/06/10 02:18:00;;;;;;;;;;;;;;;19.19;64.10;99152.56;3165494;28;20473;-67
2023/06/10 02:19:32;;;;;;;;;;;;;;;19.20;64.20;99158.69;3165153;28;19940;-67
2023/06/10 02:21:03;;;;;;;;;;;;;;;19.19;64.22;99152.56;3165328;28;19935;-66
2023/06/10 02:22:35;;;;;;;;;;;;;;;19.20;64.19;99150.78;3159721;28;20510;-66
2023/06/10 02:24:08;;;;;;;;;;;;;;;19.15;64.37;99150.34;3164902;28;20443;-66
2023/06/10 02:25:40;;;;;;;;;;;;;;;19.12;64.33;99153.28;3165482;28;19956;-66
2023/06/10 02:27:11;;;;;;;;;;;;;;;19.07;64.32;99151.03;3152741;28;20178;-65
2023/06/10 02:28:43;;;;;;;;;;;;;;;19.03;64.37;99153.13;3164805;28;19935;-66
2023/06/10 02:30:15;;;;;;;;;;;;;;;19.00;64.52;99155.22;3165236;28;19927;-66
2023/06/10 02:31:47;;;;;;;;;;;;;;;18.98;64.46;99151.88;3165316;28;20071;-66
2023/06/10 02:33:19;;;;;;;;;;;;;;;18.95;64.42;99154.78;3165430;28;19976;-66
2023/06/10 02:34:50;;;;;;;;;;;;;;;18.94;64.59;99150.50;3165533;28;20022;-66
2023/06/10 02:36:23;;;;;;;;;;;;;;;18.92;64.48;99152.44;3164778;28;20483;-66
2023/06/10 02:37:55;;;;;;;;;;;;;;;18.92;64.55;99155.06;3162661;28;20489;-67
2023/06/10 02:39:28;;;;;;;;;;;;;;;18.90;64.56;99152.59;3165161;28;19985;-66
2023/06/10 02:40:59;;;;;;;;;;;;;;;18.90;64.65;99157.00;3165285;28;19934;-66
2023/06/10 02:42:31;;;;;;;;;;;;;;;18.89;64.50;99156.16;3164961;28;19970;-66
2023/06/10 02:44:02;;;;;;;;;;;;;;;18.90;64.49;99163.13;3164882;28;19971;-66
2023/06/10 02:45:34;;;;;;;;;;;;;;;18.90;64.35;99157.00;3165508;28;20216;-66
2023/06/10 02:47:06;;;;;;;;;;;;;;;18.89;64.49;99157.97;3165344;28;19980;-66
2023/06/10 02:48:40;;;;;;;;;;;;;;;18.89;64.61;99155.34;3165242;28;20422;-66
2023/06/10 02:50:12;;;;;;;;;;;;;;;18.87;64.53;99155.47;3165282;28;19943;-66
2023/06/10 02:51:44;;;;;;;;;;;;;;;18.86;65.00;99159.91;3164977;28;19928;-66
2023/06/10 02:53:15;;;;;;;;;;;;;;;18.86;64.94;99159.91;3152635;28;20015;-66
2023/06/10 02:54:48;;;;;;;;;;;;;;;18.86;64.86;99164.38;3164835;28;19934;-64
2023/06/10 02:56:21;;;;;;;;;;;;;;;18.87;64.90;99158.09;3165177;28;19931;-65
2023/06/10 02:57:53;;;;;;;;;;;;;;;18.90;64.99;99162.28;3165000;28;20448;-65
2023/06/10 02:59:26;;;;;;;;;;;;;;;18.91;64.95;99162.16;3165155;28;19981;-66
2023/06/10 03:00:59;;;;;;;;;;;;;;;18.92;65.03;99161.16;3165080;28;20028;-65
2023/06/10 03:02:31;;;;;;;;;;;;;;;18.94;65.18;99168.97;3165299;28;20440;-66
2023/06/10 03:04:03;;;;;;;;;;;;;;;18.94;65.31;99163.69;3163393;28;20413;-68
2023/06/10 03:05:34;;;;;;;;;;;;;;;18.94;65.17;99161.88;3161799;28;20330;-66
2023/06/10 03:07:07;;;;;;;;;;;;;;;18.95;65.19;99162.72;3162350;28;19939;-66
2023/06/10 03:08:38;;;;;;;;;;;;;;;18.97;65.18;99166.88;3158604;28;19954;-66
2023/06/10 03:10:11;;;;;;;;;;;;;;;18.97;65.22;99168.69;3160825;28;20042;-65
2023/06/10 03:11:43;;;;;;;;;;;;;;;18.97;65.17;99171.31;3164929;28;19951;-66
2023/06/10 03:13:14;;;;;;;;;;;;;;;18.97;65.29;99179.25;3165195;28;19939;-66
2023/06/10 03:14:46;;;;;;;;;;;;;;;18.96;65.31;99177.56;3167251;28;20014;-66
2023/06/10 03:16:18;;;;;;;;;;;;;;;18.95;65.52;99182.00;3167237;28;19935;-66
2023/06/10 03:17:49;;;;;;;;;;;;;;;18.95;65.38;99175.91;3167474;28;20470;-67
2023/06/10 03:19:23;;;;;;;;;;;;;;;18.96;65.42;99183.69;3167349;28;20344;-67
2023/06/10 03:20:53;;;;;;;;;;;;;;;18.97;65.39;99181.88;3167298;28;19996;-66
2023/06/10 03:22:25;;;;;;;;;;;;;;;18.98;65.46;99173.81;3164003;28;19991;-66
2023/06/10 03:23:56;;;;;;;;;;;;;;;18.99;65.38;99180.78;3157555;28;20324;-67
2023/06/10 03:25:30;;;;;;;;;;;;;;;18.99;65.47;99175.50;3167244;28;19928;-66
2023/06/10 03:27:04;;;;;;;;;;;;;;;19.00;65.28;99176.31;3167161;28;20298;-66
2023/06/10 03:28:36;;;;;;;;;;;;;;;19.03;65.52;99173.41;3159887;28;19928;-66
2023/06/10 03:30:07;;;;;;;;;;;;;;;19.03;65.43;99171.59;3161305;28;19927;-64
2023/06/10 03:31:39;;;;;;;;;;;;;;;19.05;65.28;99171.47;3167402;28;19928;-64
2023/06/10 03:33:11;;;;;;;;;;;;;;;19.07;65.54;99178.25;3169810;28;19943;-64
2023/06/10 03:34:42;;;;;;;;;;;;;;;19.09;65.20;99173.69;3172606;28;19928;-63
2023/06/10 03:36:13;;;;;;;;;;;;;;;19.13;65.30;99176.03;3171889;28;19928;-63
2023/06/10 03:37:44;;;;;;;;;;;;;;;19.15;65.30;99171.47;3169983;28;19981;-64
2023/06/10 03:39:16;;;;;;;;;;;;;;;19.17;65.36;99175.63;3171720;28;20480;-65
2023/06/10 03:40:49;;;;;;;;;;;;;;;19.20;65.13;99174.53;3172397;28;19924;-65
2023/06/10 03:42:19;;;;;;;;;;;;;;;19.18;65.09;99177.28;3172449;28;19934;-65
2023/06/10 03:43:51;;;;;;;;;;;;;;;19.13;65.31;99166.31;3172679;28;19923;-64
2023/06/10 03:45:23;;;;;;;;;;;;;;;19.15;65.15;99179.38;3172206;28;19934;-67
2023/06/10 03:46:53;;;;;;;;;;;;;;;19.14;65.05;99186.47;3172308;28;19985;-67
2023/06/10 03:48:25;;;;;;;;;;;;;;;19.14;65.30;99181.19;3171744;28;19927;-66
2023/06/10 03:49:56;;;;;;;;;;;;;;;19.16;65.28;99178.41;3172384;28;19924;-67
2023/06/10 03:51:27;;;;;;;;;;;;;;;19.19;65.13;99189.50;3171993;28;19924;-66
2023/06/10 03:52:59;;;;;;;;;;;;;;;19.19;65.10;99191.31;3169948;28;19930;-65
2023/06/10 03:54:31;;;;;;;;;;;;;;;19.18;65.12;99185.22;3166746;28;19928;-64
2023/06/10 03:56:04;;;;;;;;;;;;;;;19.17;65.29;99193.28;3172077;28;19969;-67
2023/06/10 03:57:35;;;;;;;;;;;;;;;19.14;65.28;99188.25;3172289;28;20384;-67
2023/06/10 03:59:06;;;;;;;;;;;;;;;19.14;65.36;99186.47;3169718;28;19930;-65
2023/06/10 04:00:41;;;;;;;;;;;;;;;19.15;65.38;99189.94;3171362;28;20442;-66
2023/06/10 04:02:12;;;;;;;;;;;;;;;19.16;65.17;99186.31;3170579;28;19927;-65
2023/06/10 04:03:44;;;;;;;;;;;;;;;19.17;64.98;99182.72;3172206;28;20014;-66
2023/06/10 04:05:17;;;;;;;;;;;;;;;19.17;65.27;99180.91;3171465;28;19928;-67
2023/06/10 04:06:49;;;;;;;;;;;;;;;19.18;65.17;99187.84;3171630;28;19923;-66
2023/06/10 04:08:21;;;;;;;;;;;;;;;19.19;65.16;99184.22;3163678;28;19933;-65
2023/06/10 04:09:53;;;;;;;;;;;;;;;19.21;64.98;99182.28;3166107;28;19924;-65
2023/06/10 04:11:26;;;;;;;;;;;;;;;19.22;64.98;99183.13;3172005;28;19927;-64
2023/06/10 04:12:57;;;;;;;;;;;;;;;19.22;65.11;99172.56;3172217;28;19924;-65
2023/06/10 04:14:29;;;;;;;;;;;;;;;19.23;64.84;99180.34;3171761;28;20010;-66
2023/06/10 04:16:01;;;;;;;;;;;;;;;19.27;64.86;99184.38;3171984;28;19928;-65
2023/06/10 04:17:31;;;;;;;;;;;;;;;19.30;64.77;99183.25;3171785;28;20294;-66
2023/06/10 04:19:03;;;;;;;;;;;;;;;19.28;64.71;99179.91;3172256;28;19930;-66
2023/06/10 04:20:33;;;;;;;;;;;;;;;19.26;64.62;99179.25;3171853;28;19924;-65
2023/06/10 04:22:05;;;;;;;;;;;;;;;19.24;64.76;99179.38;3168734;28;20011;-68
2023/06/10 04:23:38;;;;;;;;;;;;;;;19.24;64.69;99174.09;3164813;28;20393;-68
2023/06/10 04:25:10;;;;;;;;;;;;;;;19.24;64.80;99171.47;3171503;28;19924;-67
2023/06/10 04:26:43;;;;;;;;;;;;;;;19.25;64.49;99170.47;3171626;28;19931;-61
2023/06/10 04:28:14;;;;;;;;;;;;;;;19.27;64.48;99171.19;3171576;28;19928;-67
2023/06/10 04:29:46;;;;;;;;;;;;;;;19.31;64.50;99183.13;3171194;28;20050;-66
2023/06/10 04:31:18;;;;;;;;;;;;;;;19.34;64.41;99179.34;3170914;28;20374;-68
2023/06/10 04:32:49;;;;;;;;;;;;;;;19.38;64.29;99179.94;3171235;28;20313;-69
2023/06/10 04:34:21;;;;;;;;;;;;;;;19.38;64.47;99177.28;3171544;28;19928;-68
2023/06/10 04:35:51;;;;;;;;;;;;;;;19.38;64.33;99172.00;3171498;28;20416;-71
2023/06/10 04:37:23;;;;;;;;;;;;;;;19.40;64.39;99167.41;3168227;28;19924;-69
2023/06/10 04:38:54;;;;;;;;;;;;;;;19.45;64.37;99175.75;3171596;28;19951;-70
2023/06/10 04:40:26;;;;;;;;;;;;;;;19.49;64.13;99169.19;3171097;28;20407;-69
2023/06/10 04:41:59;;;;;;;;;;;;;;;19.37;64.11;99139.47;3170745;28;19930;-64
2023/06/10 04:43:31;;;;;;;;;;;;;;;19.60;63.93;99173.50;3171215;28;19931;-64
2023/06/10 04:45:02;;;;;;;;;;;;;;;19.65;63.87;99168.66;3171244;28;19984;-64
2023/06/10 04:46:34;;;;;;;;;;;;;;;19.68;63.79;99169.19;3171654;28;19980;-65
2023/06/10 04:48:06;;;;;;;;;;;;;;;19.72;64.03;99159.19;3171407;28;19932;-65
2023/06/10 04:49:38;;;;;;;;;;;;;;;19.75;63.76;99164.16;3171127;28;20348;-65
2023/06/10 04:51:09;;;;;;;;;;;;;;;19.80;63.92;99166.41;3171166;28;20390;-67
2023/06/10 04:52:41;;;;;;;;;;;;;;;19.84;63.81;99165.13;3166098;28;19935;-69
2023/06/10 04:54:13;;;;;;;;;;;;;;;19.85;63.69;99169.44;3171355;28;20019;-67
2023/06/10 04:55:45;;;;;;;;;;;;;;;19.86;63.55;99166.66;3171410;28;19988;-65
2023/06/10 04:57:18;;;;;;;;;;;;;;;19.87;63.59;99163.03;3167472;28;19924;-69
2023/06/10 04:58:49;;;;;;;;;;;;;;;19.88;63.82;99163.88;3171769;28;20354;-66
2023/06/10 05:00:21;;;;;;;;;;;;;;;19.92;63.78;99162.59;3158801;28;19931;-69
2023/06/10 05:01:52;;;;;;;;;;;;;;;19.95;63.75;99170.25;3170687;28;19981;-68
2023/06/10 05:03:24;;;;;;;;;;;;;;;19.99;63.78;99168.97;3171333;28;19931;-68
2023/06/10 05:04:57;;;;;;;;;;;;;;;20.04;63.73;99166.72;3171523;28;19934;-67
2023/06/10 05:06:29;;;;;;;;;;;;;;;20.10;63.33;99160.84;3171166;28;19998;-70
2023/06/10 05:08:00;;;;;;;;;;;;;;;20.16;63.22;99165.56;3164829;28;19928;-67
2023/06/10 05:09:32;;;;;;;;;;;;;;;20.20;63.04;99166.94;3170901;28;19928;-68
2023/06/10 05:11:04;;;;;;;;;;;;;;;20.23;62.94;99168.44;3171171;28;20438;-68
2023/06/10 05:12:38;;;;;;;;;;;;;;;20.26;63.05;99172.59;3171234;28;19932;-69
2023/06/10 05:14:09;;;;;;;;;;;;;;;20.31;62.94;99165.91;3171369;28;19928;-69
2023/06/10 05:15:44;;;;;;;;;;;;;;;20.38;62.72;99167.00;3172237;28;19931;-70
2023/06/10 05:17:15;;;;;;;;;;;;;;;20.45;62.66;99169.88;3171156;28;19942;-68
2023/06/10 05:18:47;;;;;;;;;;;;;;;20.51;62.70;99166.63;3171231;28;19923;-69
2023/06/10 05:20:19;;;;;;;;;;;;;;;20.58;62.69;99166.91;3170959;28;19924;-70
2023/06/10 05:21:51;;;;;;;;;;;;;;;20.63;62.51;99168.13;3171185;28;19923;-68
2023/06/10 05:23:21;;;;;;;;;;;;;;;20.69;62.26;99164.06;3167047;28;19947;-69
2023/06/10 05:24:53;;;;;;;;;;;;;;;20.76;62.07;99162.47;3170687;28;19924;-70
2023/06/10 05:26:25;;;;;;;;;;;;;;;20.83;62.29;99168.00;3170783;28;19985;-72
2023/06/10 05:27:58;;;;;;;;;;;;;;;20.87;62.00;99164.06;3171401;28;20343;-71
2023/06/10 05:29:29;;;;;;;;;;;;;;;20.90;62.23;99163.75;3165623;28;19981;-73
2023/06/10 05:31:01;;;;;;;;;;;;;;;20.95;61.98;99158.84;3170456;28;19935;-73
2023/06/10 05:32:32;;;;;;;;;;;;;;;21.02;62.05;99154.59;3170723;28;19923;-73
2023/06/10 05:34:03;;;;;;;;;;;;;;;21.11;61.94;99152.88;3169299;28;19924;-70
2023/06/10 05:35:34;;;;;;;;;;;;;;;21.19;61.60;99160.06;3170700;28;19934;-71
2023/06/10 05:37:06;;;;;;;;;;;;;;;21.25;61.58;99152.31;3167318;28;19940;-76
2023/06/10 05:38:38;;;;;;;;;;;;;;;21.24;61.31;99148.03;3166622;28;19977;-75
2023/06/10 05:40:09;;;;;;;;;;;;;;;21.41;61.08;99162.22;3165622;28;19928;-73
2023/06/10 05:41:41;;;;;;;;;;;;;;;21.50;60.86;99163.97;3165580;28;19927;-75
2023/06/10 05:43:16;;;;;;;;;;;;;;;21.58;60.97;99160.53;3165734;28;20010;-82
2023/06/10 05:44:48;;;;;;;;;;;;;;;21.65;60.66;99161.59;3165812;28;19928;-78
2023/06/10 05:46:20;;;;;;;;;;;;;;;21.71;60.73;99165.41;3164948;28;19928;-78
2023/06/10 05:47:52;;;;;;;;;;;;;;;21.77;60.44;99170.13;3165587;28;20457;-76
2023/06/10 05:49:24;;;;;;;;;;;;;;;21.83;60.28;99165.97;3165348;28;20046;-75
2023/06/10 05:50:55;;;;;;;;;;;;;;;21.91;60.23;99166.88;3167946;28;19927;-78
2023/06/10 05:52:27;;;;;;;;;;;;;;;21.98;59.93;99167.09;3158358;28;19929;-81
2023/06/10 05:53:58;;;;;;;;;;;;;;;22.01;60.12;99170.25;3157795;28;19927;-74
2023/06/10 05:55:30;;;;;;;;;;;;;;;22.03;59.69;99168.25;3165512;28;20469;-73
2023/06/10 05:57:03;;;;;;;;;;;;;;;22.04;59.63;99175.25;3165618;28;20004;-75
2023/06/10 05:58:36;;;;;;;;;;;;;;;22.10;60.02;99170.31;3165343;28;19927;-74
2023/06/10 06:00:09;;;;;;;;;;;;;;;22.13;59.96;99184.06;3165335;28;20007;-74
2023/06/10 06:01:40;;;;;;;;;;;;;;;22.19;59.66;99174.69;3166167;28;19960;-76
2023/06/10 06:03:12;;;;;;;;;;;;;;;22.23;59.72;99181.31;3165905;28;19935;-75
2023/06/10 06:04:43;;;;;;;;;;;;;;;22.24;59.33;99178.53;3165390;28;19977;-75
2023/06/10 06:06:15;;;;;;;;;;;;;;;22.24;59.74;99183.81;3165471;28;20439;-78
2023/06/10 06:07:47;;;;;;;;;;;;;;;22.25;59.38;99179.34;3157254;28;19947;-76
2023/06/10 06:09:18;;;;;;;;;;;;;;;22.14;59.37;99176.94;3153103;28;19947;-74
2023/06/10 06:10:51;;;;;;;;;;;;;;;22.16;59.43;99189.06;3163353;28;20436;-76
2023/06/10 06:12:22;;;;;;;;;;;;;;;22.14;59.44;99188.38;3164865;28;20373;-73
2023/06/10 06:13:55;;;;;;;;;;;;;;;22.16;59.16;99193.53;3165398;28;20100;-75
2023/06/10 06:15:27;;;;;;;;;;;;;;;22.15;59.40;99194.50;3165149;28;20365;-75
2023/06/10 06:16:59;;;;;;;;;;;;;;;22.16;59.31;99193.53;3165360;28;19934;-76
2023/06/10 06:18:30;;;;;;;;;;;;;;;22.20;58.99;99192.25;3165147;28;19938;-74
2023/06/10 06:20:02;;;;;;;;;;;;;;;22.22;58.89;99190.28;3165249;28;20005;-74
2023/06/10 06:21:34;;;;;;;;;;;;;;;22.27;58.89;99190.59;3165053;28;19938;-70
2023/06/10 06:23:05;;;;;;;;;;;;;;;22.31;59.07;99188.50;3156502;28;19936;-72
2023/06/10 06:24:37;;;;;;;;;;;;;;;22.37;58.67;99186.03;3164923;28;20047;-76
2023/06/10 06:26:09;;;;;;;;;;;;;;;22.40;58.79;99183.06;3164993;28;19928;-73
2023/06/10 06:27:40;;;;;;;;;;;;;;;22.42;58.54;99189.03;3165167;28;19988;-75
2023/06/10 06:29:14;;;;;;;;;;;;;;;22.41;58.30;99184.69;3164464;28;20469;-74
2023/06/10 06:30:45;;;;;;;;;;;;;;;22.40;58.52;99180.41;3165445;28;20393;-78
2023/06/10 06:32:16;;;;;;;;;;;;;;;22.40;58.56;99179.56;3165085;28;20145;-76
2023/06/10 06:33:47;;;;;;;;;;;;;;;22.42;58.28;99175.78;3165258;28;20346;-76
2023/06/10 06:35:19;;;;;;;;;;;;;;;22.46;58.21;99179.75;3165255;28;19938;-76
2023/06/10 06:36:51;;;;;;;;;;;;;;;22.53;58.28;99177.28;3164151;28;19966;-74
2023/06/10 06:38:21;;;;;;;;;;;;;;;22.59;58.01;99179.28;3163966;28;20494;-68
2023/06/10 06:39:53;;;;;;;;;;;;;;;22.64;58.03;99173.50;3164942;28;19935;-77
2023/06/10 06:41:25;;;;;;;;;;;;;;;22.71;57.89;99171.84;3164887;28;20416;-73
2023/06/10 06:42:57;;;;;;;;;;;;;;;22.77;57.83;99162.41;3164918;28;19962;-73
2023/06/10 06:44:30;;;;;;;;;;;;;;;22.84;57.31;99163.44;3165080;28;19996;-69
2023/06/10 06:46:02;;;;;;;;;;;;;;;22.90;57.57;99166.25;3165284;28;19931;-69
2023/06/10 06:47:33;;;;;;;;;;;;;;;22.97;57.15;99161.16;3164760;28;19928;-76
2023/06/10 06:49:05;;;;;;;;;;;;;;;23.04;57.41;99164.81;3167774;28;20514;-78
2023/06/10 06:50:37;;;;;;;;;;;;;;;23.12;57.11;99166.63;3156801;28;20471;-77
2023/06/10 06:52:08;;;;;;;;;;;;;;;23.22;56.73;99156.69;3163757;28;19977;-73
2023/06/10 06:53:44;;;;;;;;;;;;;;;23.33;56.56;99159.00;3167830;28;19935;-72
2023/06/10 06:55:15;;;;;;;;;;;;;;;23.47;56.24;99154.84;3167533;28;19935;-75
2023/06/10 06:56:46;;;;;;;;;;;;;;;23.58;55.89;99151.84;3167400;28;19978;-73
2023/06/10 06:58:18;;;;;;;;;;;;;;;23.69;55.69;99155.97;3167318;28;19939;-75
2023/06/10 06:59:51;;;;;;;;;;;;;;;23.78;55.80;99157.66;3167611;28;20454;-76
2023/06/10 07:01:22;;;;;;;;;;;;;;;23.87;55.24;99160.28;3167430;28;19935;-72
2023/06/10 07:02:54;;;;;;;;;;;;;;;23.96;55.39;99153.94;3160334;28;20107;-74
2023/06/10 07:04:26;;;;;;;;;;;;;;;24.05;55.29;99151.09;3161928;28;19928;-70
2023/06/10 07:05:58;;;;;;;;;;;;;;;24.13;54.94;99147.56;3167150;28;19935;-69
2023/06/10 07:07:29;;;;;;;;;;;;;;;24.21;54.88;99147.53;3166935;28;19935;-70
2023/06/10 07:09:01;;;;;;;;;;;;;;;24.27;54.55;99148.69;3166983;28;19927;-72
2023/06/10 07:10:33;;;;;;;;;;;;;;;24.30;54.44;99151.00;3167284;28;19928;-75
2023/06/10 07:12:05;;;;;;;;;;;;;;;24.35;54.74;99153.97;3166575;28;20035;-76
2023/06/10 07:13:37;;;;;;;;;;;;;;;24.38;54.50;99142.16;3167137;28;19936;-76
2023/06/10 07:15:10;;;;;;;;;;;;;;;24.43;54.36;99145.13;3167548;28;19928;-70
2023/06/10 07:16:41;;;;;;;;;;;;;;;24.49;54.57;99139.09;3167120;28;20338;-67
2023/06/10 07:18:13;;;;;;;;;;;;;;;24.52;54.26;99142.28;3166701;28;19927;-67
2023/06/10 07:19:44;;;;;;;;;;;;;;;24.55;54.07;99142.91;3166872;28;19938;-66
2023/06/10 07:21:15;;;;;;;;;;;;;;;24.56;54.30;99134.75;3167354;28;19928;-67
2023/06/10 07:22:47;;;;;;;;;;;;;;;24.61;54.27;99136.88;3162581;28;19932;-67
2023/06/10 07:24:19;;;;;;;;;;;;;;;24.66;54.20;99137.19;3167186;28;20706;-68
2023/06/10 07:25:51;;;;;;;;;;;;;;;24.71;54.18;99137.50;3167146;28;19928;-67
2023/06/10 07:27:23;;;;;;;;;;;;;;;24.77;53.68;99131.47;3167040;28;19935;-67
2023/06/10 07:28:55;;;;;;;;;;;;;;;24.81;53.86;99132.75;3167159;28;19932;-68
2023/06/10 07:30:29;;;;;;;;;;;;;;;24.88;53.63;99133.72;3167123;28;19936;-68
2023/06/10 07:32:01;;;;;;;;;;;;;;;24.94;53.66;99132.19;3160992;28;20018;-67
2023/06/10 07:33:32;;;;;;;;;;;;;;;24.99;53.53;99132.44;3164210;28;20457;-68
2023/06/10 07:35:04;;;;;;;;;;;;;;;25.04;53.04;99129.28;3167244;28;19927;-67
2023/06/10 07:36:36;;;;;;;;;;;;;;;25.06;52.84;99133.41;3164836;28;19969;-67
2023/06/10 07:38:07;;;;;;;;;;;;;;;25.03;52.95;99132.94;3163931;28;20442;-67
2023/06/10 07:39:39;;;;;;;;;;;;;;;25.00;52.94;99134.13;3166406;28;19932;-66
2023/06/10 07:41:11;;;;;;;;;;;;;;;25.00;53.18;99128.81;3166927;28;20000;-67
2023/06/10 07:42:43;;;;;;;;;;;;;;;25.02;52.96;99134.75;3166270;28;19989;-66
2023/06/10 07:44:13;;;;;;;;;;;;;;;25.01;53.21;99132.28;3165304;28;19928;-66
2023/06/10 07:45:46;;;;;;;;;;;;;;;24.95;53.08;99132.00;3165544;28;19928;-66
2023/06/10 07:47:19;;;;;;;;;;;;;;;24.90;52.88;99137.00;3166518;28;19940;-67
2023/06/10 07:48:51;;;;;;;;;;;;;;;24.88;52.94;99138.22;3166610;28;19970;-66
2023/06/10 07:50:22;;;;;;;;;;;;;;;24.84;52.80;99132.41;3165783;28;20005;-66
2023/06/10 07:51:55;;;;;;;;;;;;;;;24.84;53.32;99132.41;3164948;28;20669;-66
2023/06/10 07:53:26;;;;;;;;;;;;;;;24.87;53.22;99132.03;3165289;28;19932;-66
2023/06/10 07:54:58;;;;;;;;;;;;;;;24.93;53.10;99125.19;3166721;28;20349;-67
2023/06/10 07:56:29;;;;;;;;;;;;;;;25.01;53.06;99133.13;3166382;28;19988;-66
2023/06/10 07:58:01;;;;;;;;;;;;;;;25.03;52.31;99135.63;3166824;28;19927;-66
2023/06/10 07:59:33;;;;;;;;;;;;;;;25.00;52.01;99131.47;3165949;28;19928;-67